createdAt,value
2019-02-25T08:19:35.380Z,23.23
2019-02-25T08:22:34.084Z,23.50
2019-02-25T08:25:38.555Z,24.23
2019-02-25T08:28:34.128Z,24.83
2019-02-25T08:31:17.806Z,24.73
2019-02-25T08:34:18.272Z,26.23
2019-02-25T08:37:42.925Z,25.30
2019-02-25T08:41:01.783Z,25.10
2019-02-25T08:43:57.676Z,26.73
2019-02-25T08:46:38.370Z,26.23
2019-02-25T08:49:17.348Z,27.97
2019-02-25T08:51:48.144Z,27.43
2019-02-25T08:54:19.595Z,25.13
2019-02-25T08:56:49.968Z,26.30
2019-02-25T08:59:20.340Z,27.67
2019-02-25T09:01:50.724Z,27.10
2019-02-25T09:04:21.664Z,25.03
2019-02-25T09:06:52.138Z,25.83
2019-02-25T09:09:23.504Z,25.70
2019-02-25T09:11:53.876Z,26.10
2019-02-25T09:14:24.258Z,25.97
2019-02-25T09:16:54.720Z,24.17
2019-02-25T09:19:25.147Z,24.37
2019-02-25T09:21:55.552Z,24.47
2019-02-25T09:24:25.918Z,24.23
2019-02-25T09:26:56.378Z,23.50
2019-02-25T09:29:26.812Z,22.80
2019-02-25T09:31:57.352Z,23.57
2019-02-25T09:34:27.866Z,23.13
2019-02-25T09:36:59.308Z,23.70
2019-02-25T09:39:29.671Z,24.90
2019-02-25T09:42:02.075Z,24.43
2019-02-25T09:44:32.179Z,24.10
2019-02-25T09:47:02.535Z,25.20
2019-02-25T09:49:32.903Z,25.40
2019-02-25T09:52:03.260Z,25.17
2019-02-25T09:54:33.656Z,25.60
2019-02-25T09:57:04.008Z,24.97
2019-02-25T09:59:34.480Z,34.53
2019-02-25T10:02:04.865Z,25.13
2019-02-25T10:04:35.256Z,24.03
2019-02-25T10:07:05.628Z,23.10
2019-02-25T10:09:36.027Z,24.77
2019-02-25T10:12:06.471Z,23.63
2019-02-25T10:14:36.954Z,22.70
2019-02-25T10:17:07.396Z,24.07
2019-02-25T10:19:37.864Z,24.83
2019-02-25T10:22:08.272Z,23.30
2019-02-25T10:24:39.904Z,24.83
2019-02-25T10:27:12.216Z,24.20
2019-02-25T10:29:42.596Z,22.63
2019-02-25T10:32:12.996Z,22.50
2019-02-25T10:34:43.352Z,21.50
2019-02-25T10:37:15.577Z,21.80
2019-02-25T10:39:47.459Z,22.97
2019-02-25T10:42:17.855Z,24.63
2019-02-25T10:44:48.212Z,30.33
2019-02-25T10:47:19.898Z,24.90
2019-02-25T10:49:50.752Z,24.10
2019-02-25T10:52:21.216Z,19.40
2019-02-25T10:54:54.006Z,20.92
2019-02-25T10:57:27.126Z,20.08
2019-02-25T10:59:57.200Z,19.87
2019-02-25T11:02:27.591Z,19.13
2019-02-25T11:04:57.964Z,19.73
2019-02-25T11:07:28.764Z,19.20
2019-02-25T11:10:18.674Z,19.20
2019-02-25T11:12:49.537Z,17.70
2019-02-25T11:15:20.037Z,17.93
2019-02-25T11:17:51.815Z,19.13
2019-02-25T11:20:22.663Z,20.27
2019-02-25T11:22:53.284Z,18.93
2019-02-25T11:25:25.735Z,20.50
2019-02-25T11:27:56.003Z,18.73
2019-02-25T11:30:27.073Z,19.60
2019-02-25T11:32:59.975Z,19.37
2019-02-25T11:35:31.176Z,19.32
2019-02-25T11:38:02.201Z,19.45
2019-02-25T11:40:34.133Z,19.67
2019-02-25T11:43:04.900Z,19.52
2019-02-25T11:45:36.400Z,18.87
2019-02-25T11:48:07.542Z,18.98
2019-02-25T11:50:38.764Z,17.80
2019-02-25T11:53:09.789Z,16.52
2019-02-25T11:55:41.250Z,14.80
2019-02-25T11:58:12.317Z,16.40
2019-02-25T12:00:43.400Z,15.00
2019-02-25T12:03:13.848Z,16.45
2019-02-25T12:05:44.817Z,16.27
2019-02-25T12:08:16.057Z,16.15
2019-02-25T12:10:47.100Z,16.30
2019-02-25T12:13:18.200Z,16.42
2019-02-25T12:15:49.572Z,16.70
2019-02-25T12:18:21.365Z,18.07
2019-02-25T12:20:51.779Z,17.32
2019-02-25T12:23:22.163Z,17.85
2019-02-25T12:25:52.556Z,16.65
2019-02-25T12:28:23.531Z,16.42
2019-02-25T12:30:54.013Z,16.45
2019-02-25T12:33:25.010Z,16.67
2019-02-25T12:35:55.897Z,16.00
2019-02-25T12:38:26.712Z,15.40
2019-02-25T12:40:57.177Z,14.27
2019-02-25T12:43:27.568Z,14.43
2019-02-25T12:45:58.064Z,14.77
2019-02-25T12:48:28.448Z,14.70
2019-02-25T12:50:59.688Z,14.33
2019-02-25T12:53:30.244Z,14.30
2019-02-25T12:56:00.640Z,14.27
2019-02-25T12:58:31.124Z,14.30
2019-02-25T13:01:01.636Z,13.87
2019-02-25T13:03:32.184Z,12.70
2019-02-25T13:06:02.560Z,13.13
2019-02-25T13:08:33.348Z,13.07
2019-02-25T13:11:03.845Z,13.40
2019-02-25T13:13:34.293Z,13.60
2019-02-25T13:16:05.080Z,12.57
2019-02-25T13:18:35.768Z,12.67
2019-02-25T13:21:06.185Z,12.97
2019-02-25T13:23:36.652Z,11.60
2019-02-25T13:26:07.569Z,12.53
2019-02-25T13:28:38.383Z,12.37
2019-02-25T13:31:10.216Z,12.93
2019-02-25T13:33:40.917Z,11.70
2019-02-25T13:36:12.976Z,12.30
2019-02-25T13:38:43.596Z,13.00
2019-02-25T13:41:14.148Z,10.57
2019-02-25T13:43:44.596Z,11.47
2019-02-25T13:46:15.925Z,10.20
2019-02-25T13:48:45.831Z,10.17
2019-02-25T13:51:17.195Z,10.60
2019-02-25T13:53:48.086Z,10.17
2019-02-25T13:56:18.541Z,9.57
2019-02-25T13:58:48.976Z,10.43
2019-02-25T14:01:19.560Z,9.23
2019-02-25T14:03:50.578Z,8.70
2019-02-25T14:06:21.099Z,8.27
2019-02-25T14:08:51.571Z,8.13
2019-02-25T14:11:22.020Z,8.50
2019-02-25T14:13:52.517Z,8.10
2019-02-25T14:16:23.860Z,8.53
2019-02-25T14:18:54.316Z,7.70
2019-02-25T14:21:24.812Z,7.57
2019-02-25T14:23:57.662Z,7.23
2019-02-25T14:26:27.333Z,7.90
2019-02-25T14:28:57.824Z,8.00
2019-02-25T14:31:29.963Z,7.50
2019-02-25T14:34:00.626Z,7.37
2019-02-25T14:36:31.137Z,6.73
2019-02-25T14:39:04.283Z,6.53
2019-02-25T14:41:35.446Z,6.40
2019-02-25T14:44:06.285Z,5.80
2019-02-25T14:46:36.820Z,6.27
2019-02-25T14:49:08.179Z,5.60
2019-02-25T14:51:38.788Z,5.97
2019-02-25T14:54:09.300Z,7.30
2019-02-25T14:56:42.929Z,5.77
2019-02-25T14:59:15.135Z,5.17
2019-02-25T15:01:45.444Z,5.03
2019-02-25T15:04:15.955Z,4.70
2019-02-25T15:06:46.451Z,4.40
2019-02-25T15:09:18.082Z,4.97
2019-02-25T15:11:51.166Z,4.83
2019-02-25T15:14:22.236Z,4.37
2019-02-25T15:16:53.040Z,4.70
2019-02-25T15:19:24.596Z,4.50
2019-02-25T15:21:56.388Z,4.87
2019-02-25T15:24:27.611Z,4.97
2019-02-25T15:26:59.861Z,4.63
2019-02-25T15:29:32.113Z,5.10
2019-02-25T15:32:04.701Z,4.57
2019-02-25T15:34:37.490Z,5.07
2019-02-25T15:37:09.412Z,6.07
2019-02-25T15:39:42.404Z,5.60
2019-02-25T15:42:14.003Z,6.13
2019-02-25T15:44:47.194Z,5.73
2019-02-25T15:47:17.064Z,5.83
2019-02-25T15:49:47.732Z,6.07
2019-02-25T15:52:18.806Z,5.63
2019-02-25T15:54:50.394Z,6.20
2019-02-25T15:57:22.584Z,5.67
2019-02-25T15:59:54.460Z,6.80
2019-02-25T16:02:25.485Z,5.73
2019-02-25T17:20:10.205Z,8.63
2019-02-25T17:22:39.660Z,9.13
2019-02-25T17:47:02.145Z,11.97
2019-02-25T17:49:33.699Z,10.67
2019-02-25T17:52:05.039Z,12.57
2019-02-25T17:54:37.635Z,16.73
2019-02-25T17:57:09.751Z,10.83
2019-02-25T20:52:26.681Z,9.67
2019-02-25T20:54:57.367Z,9.00
2019-02-25T20:57:29.525Z,8.53
2019-02-25T21:12:20.256Z,9.10
2019-02-25T21:14:52.084Z,9.80
2019-02-25T21:17:22.737Z,10.03
2019-02-25T21:19:53.223Z,9.27
2019-02-25T21:22:27.135Z,8.83
2019-02-25T21:24:57.987Z,8.23
2019-02-25T21:36:45.395Z,8.43
2019-02-25T21:39:19.136Z,8.77
2019-02-25T21:45:22.334Z,8.57
2019-02-25T22:09:08.172Z,9.30
2019-02-25T22:11:40.336Z,8.80
2019-02-25T22:14:14.121Z,9.60
2019-02-25T22:16:44.587Z,9.97
2019-02-25T22:19:16.485Z,9.60
2019-02-25T22:21:57.971Z,9.90
2019-02-25T22:24:29.104Z,9.33
2019-02-25T22:27:00.053Z,9.33
2019-02-25T22:29:38.540Z,8.50
2019-02-25T22:32:10.838Z,8.87
2019-02-25T22:34:45.343Z,9.53
2019-02-25T22:37:22.784Z,9.30
2019-02-25T22:46:11.689Z,8.93
2019-02-25T22:51:51.933Z,9.17
2019-02-25T22:54:25.570Z,9.03
2019-02-25T22:56:57.950Z,9.90
2019-02-25T22:59:27.815Z,9.60
2019-02-25T23:02:02.048Z,9.50
2019-02-25T23:04:32.526Z,9.53
2019-02-25T23:07:03.899Z,9.40
2019-02-25T23:09:34.692Z,9.20
